Grand Forks Air Force Base
KRDR : now visible

Airfield :











YOU CAN JOIN US ON...

 
LOGIN :

Register | Disclaimer

   EN    FR    IT 

 









Legend :    VFR   Marginal VFR   IFR   Intensive IFR   Very Intensive IFR
Visi :
Ceiling :
>= 8 km
>= 3000ft
5 to 8 km
1000 to 3000 ft
1500m to 5 km
500 to 1000 ft
800 to 1500m
200 to 500 ft
< 800m
< 200 ft
Symbols :   Thunderstorms  Fog  Heavy snow  Heavy precipitations  Wind > 20 kt






- Airport Elevation : 913 ft


KRDR - Grand Forks Air Force Base

CURRENT METAR :
  • 231356Z AUTO 32021G30KT 10SM CLR 00/M04 A2975 RMK AO2 PK WND 32030/16 SLP092 T00011042

EXPIRED METARs :
  • 231256Z AUTO 31022G29KT 10SM CLR 00/M04 A2971 RMK AO2 PK WND 29029/36 SLP077 T00041037
  • 231156Z AUTO 29018G26KT 10SM CLR 00/M03 A2970 RMK AO2 PK WND 29026/23 SLP072 T00031031 10017 21039 52021

TAF AMD TAF KRDR
Valid from the 23 at 14:00 until the 24 at 16:00 UTC


231440Z 2314/2416 32015G25KT 9999 FEW100 510003 QNH2970INS
TEMPO 2316/2318 29020G35KT
BECMG 2322/2323 28012KT 9999 FEW100 QNH2991INS
BECMG 2404/2405 32009KT 9999 FEW015 SCT100 QNH2995INS TX01/2320Z TNM12/2410Z



MET'MAP, your aeronautical weather chart ! - Copyright ORBIFLY December 2007 - Disclaimer

ORBIFLY MET'MAP TEAM :

Programming & Development : Alexandra Zaïnal
Concept & original design : Baudouin d'Aumeries
Assistance for programming : Marc-Olivier Méhu
Technical & hardware support : Manuel Goepfert

Contact : metmap@orbifly.com




SOURCES & CREDITS :

   NOAA       Earth
Advisory